Time;durP1;ratioP1;P1;durP2;ratioP2;P2;SDS_P1;SDS_P2;PMS_P1;PMS_P2;Temp;Humidity;BMP_temperature;BMP_pressure;BME280_temperature;BME280_humidity;BME280_pressure;Samples;Min_cycle;Max_cycle;Signal;HPM_P1;HPM_P2
2022/09/19 00:00:51;;;;;;;3.93;1.50;;;;;;;;;;5051873;28;20686;-47
2022/09/19 00:03:17;;;;;;;3.47;1.53;;;;;;;;;;5052204;28;20196;-47
2022/09/19 00:05:43;;;;;;;5.80;1.50;;;;;;;;;;5052513;28;20216;-47
2022/09/19 00:08:09;;;;;;;5.77;1.60;;;;;;;;;;5052272;28;20267;-48
2022/09/19 00:10:39;;;;;;;5.13;1.50;;;;;;;;;;5051963;28;20670;-44
2022/09/19 00:13:07;;;;;;;3.53;1.30;;;;;;;;;;5052492;28;20188;-45
2022/09/19 00:15:34;;;;;;;4.13;1.60;;;;;;;;;;5050155;28;20196;-45
2022/09/19 00:18:00;;;;;;;6.40;2.20;;;;;;;;;;5052439;28;20196;-46
2022/09/19 00:20:26;;;;;;;4.37;1.77;;;;;;;;;;5052251;28;20292;-46
2022/09/19 00:25:36;;;;;;;3.30;1.57;;;;;;;;;;5052109;28;20195;-46
2022/09/19 00:28:02;;;;;;;4.10;1.57;;;;;;;;;;5051577;28;20594;-46
2022/09/19 00:30:30;;;;;;;2.07;1.20;;;;;;;;;;5051756;28;20243;-46
2022/09/19 00:32:58;;;;;;;2.43;1.33;;;;;;;;;;5052214;28;20212;-46
2022/09/19 00:35:24;;;;;;;3.27;1.67;;;;;;;;;;5051802;28;20662;-46
2022/09/19 00:37:50;;;;;;;3.80;1.33;;;;;;;;;;5051759;28;20259;-46
2022/09/19 00:40:16;;;;;;;3.13;1.40;;;;;;;;;;5051627;28;20197;-46
2022/09/19 00:42:42;;;;;;;3.33;1.33;;;;;;;;;;5051954;28;20793;-46
2022/09/19 00:45:12;;;;;;;5.50;2.00;;;;;;;;;;5051656;28;20261;-46
2022/09/19 00:47:41;;;;;;;2.90;1.67;;;;;;;;;;5051652;28;20200;-45
2022/09/19 00:50:13;;;;;;;4.40;1.30;;;;;;;;;;5051752;28;20208;-46
2022/09/19 00:52:43;;;;;;;5.30;1.30;;;;;;;;;;5051522;28;20200;-46
2022/09/19 00:55:09;;;;;;;3.20;1.40;;;;;;;;;;5051821;28;20288;-46
2022/09/19 00:57:45;;;;;;;1.77;1.53;;;;;;;;;;5051467;28;20725;-46
2022/09/19 01:00:12;;;;;;;4.10;1.47;;;;;;;;;;5051636;28;20219;-46
2022/09/19 01:02:41;;;;;;;3.50;1.90;;;;;;;;;;5051587;28;20319;-46
2022/09/19 01:05:07;;;;;;;3.63;1.40;;;;;;;;;;5051646;28;20201;-46
2022/09/19 01:07:43;;;;;;;1.57;1.30;;;;;;;;;;5050535;28;20231;-46
2022/09/19 01:10:15;;;;;;;3.60;1.60;;;;;;;;;;5051651;28;20273;-46
2022/09/19 01:12:47;;;;;;;3.70;1.50;;;;;;;;;;5051130;28;20622;-46
2022/09/19 01:15:20;;;;;;;3.07;1.60;;;;;;;;;;5051398;28;20208;-46
2022/09/19 01:17:48;;;;;;;2.50;1.33;;;;;;;;;;5051368;28;20196;-46
2022/09/19 01:20:21;;;;;;;1.90;1.60;;;;;;;;;;5051489;28;20200;-47
2022/09/19 01:22:54;;;;;;;2.17;1.50;;;;;;;;;;5051513;28;20203;-46
2022/09/19 01:25:23;;;;;;;2.57;1.40;;;;;;;;;;5051150;28;20649;-46
2022/09/19 01:28:10;;;;;;;2.63;1.27;;;;;;;;;;5051273;28;20788;-46
2022/09/19 01:30:42;;;;;;;2.73;1.40;;;;;;;;;;5051185;28;20231;-46
2022/09/19 01:33:11;;;;;;;3.67;1.57;;;;;;;;;;5051368;28;20934;-46
2022/09/19 01:35:38;;;;;;;2.77;1.30;;;;;;;;;;5051243;28;20251;-46
2022/09/19 01:38:07;;;;;;;4.20;1.60;;;;;;;;;;5051244;28;20192;-45
2022/09/19 01:40:33;;;;;;;2.00;1.40;;;;;;;;;;5051117;28;20224;-45
2022/09/19 01:42:59;;;;;;;6.47;1.73;;;;;;;;;;5051343;28;20211;-46
2022/09/19 01:45:29;;;;;;;6.43;2.00;;;;;;;;;;5050216;28;20223;-46
2022/09/19 01:48:00;;;;;;;4.87;1.73;;;;;;;;;;5051158;28;20200;-45
2022/09/19 01:50:32;;;;;;;4.67;1.63;;;;;;;;;;5051184;28;20291;-46
2022/09/19 01:53:03;;;;;;;3.73;1.40;;;;;;;;;;5051438;28;20291;-46
2022/09/19 01:55:31;;;;;;;3.30;1.57;;;;;;;;;;5050878;28;20196;-46
2022/09/19 01:58:04;;;;;;;3.90;1.50;;;;;;;;;;5051181;28;20188;-45
2022/09/19 02:00:30;;;;;;;4.67;1.80;;;;;;;;;;5051025;28;20201;-45
2022/09/19 02:03:04;;;;;;;4.23;1.90;;;;;;;;;;5051104;28;20204;-45
2022/09/19 02:05:35;;;;;;;4.30;1.53;;;;;;;;;;5050990;28;20231;-45
2022/09/19 02:08:07;;;;;;;2.47;1.40;;;;;;;;;;5050985;28;20224;-46
2022/09/19 02:10:36;;;;;;;5.93;1.80;;;;;;;;;;5050978;28;20232;-46
2022/09/19 02:13:05;;;;;;;2.73;1.40;;;;;;;;;;5051031;28;20839;-46
2022/09/19 02:15:33;;;;;;;2.63;1.43;;;;;;;;;;5050380;28;20203;-46
2022/09/19 02:18:02;;;;;;;7.90;2.17;;;;;;;;;;5051101;28;20204;-46
2022/09/19 02:20:30;;;;;;;2.93;1.53;;;;;;;;;;5054524;28;20420;-46
2022/09/19 02:23:00;;;;;;;2.27;1.50;;;;;;;;;;5054618;28;20192;-46
2022/09/19 02:25:28;;;;;;;2.97;1.50;;;;;;;;;;5054357;28;20230;-46
2022/09/19 02:27:56;;;;;;;3.40;1.50;;;;;;;;;;5054376;28;20708;-46
2022/09/19 02:30:22;;;;;;;4.30;1.57;;;;;;;;;;5053687;28;20664;-46
2022/09/19 02:32:49;;;;;;;5.83;1.90;;;;;;;;;;5054537;28;20207;-46
2022/09/19 02:35:16;;;;;;;2.93;1.77;;;;;;;;;;5054380;28;20279;-53
2022/09/19 02:37:46;;;;;;;5.17;1.80;;;;;;;;;;5054271;28;20199;-47
2022/09/19 02:40:17;;;;;;;5.43;1.67;;;;;;;;;;5054135;28;20204;-46
2022/09/19 02:42:47;;;;;;;5.50;1.67;;;;;;;;;;5054244;28;20204;-46
2022/09/19 02:45:17;;;;;;;4.20;1.60;;;;;;;;;;5054194;28;20301;-46
2022/09/19 02:47:47;;;;;;;7.03;2.20;;;;;;;;;;5053630;28;20235;-46
2022/09/19 02:50:14;;;;;;;2.47;1.70;;;;;;;;;;5054125;28;20220;-45
2022/09/19 02:52:42;;;;;;;5.90;1.80;;;;;;;;;;5053955;28;20207;-45
2022/09/19 02:55:12;;;;;;;5.00;1.90;;;;;;;;;;5054058;28;20230;-45
2022/09/19 02:57:41;;;;;;;4.37;1.93;;;;;;;;;;5053918;28;20287;-46
2022/09/19 03:00:08;;;;;;;2.47;1.60;;;;;;;;;;5053658;28;20212;-48
2022/09/19 03:02:35;;;;;;;4.70;1.80;;;;;;;;;;5053785;28;20200;-46
2022/09/19 03:05:05;;;;;;;2.57;1.67;;;;;;;;;;5053727;28;20270;-45
2022/09/19 03:07:34;;;;;;;3.37;1.83;;;;;;;;;;5053482;28;20263;-45
2022/09/19 03:10:03;;;;;;;7.50;1.67;;;;;;;;;;5053633;28;20228;-45
2022/09/19 03:12:31;;;;;;;4.83;1.80;;;;;;;;;;5053591;28;20204;-45
2022/09/19 03:14:58;;;;;;;6.97;2.57;;;;;;;;;;5053593;28;20208;-45
2022/09/19 03:17:27;;;;;;;3.27;1.50;;;;;;;;;;5053349;28;20721;-45
2022/09/19 03:19:53;;;;;;;5.67;1.83;;;;;;;;;;5053604;28;20279;-46
2022/09/19 03:22:19;;;;;;;4.23;1.70;;;;;;;;;;5053388;28;20200;-46
2022/09/19 03:24:45;;;;;;;2.17;1.50;;;;;;;;;;5053377;28;20266;-46
2022/09/19 03:27:11;;;;;;;3.60;1.50;;;;;;;;;;5053397;28;20200;-45
2022/09/19 03:29:37;;;;;;;3.10;1.40;;;;;;;;;;5052527;28;20319;-46
2022/09/19 03:32:04;;;;;;;4.60;1.93;;;;;;;;;;5053163;28;20737;-45
2022/09/19 03:34:32;;;;;;;3.73;2.07;;;;;;;;;;5053175;28;20204;-45
2022/09/19 03:36:59;;;;;;;3.13;1.60;;;;;;;;;;5053190;28;20204;-45
2022/09/19 03:39:25;;;;;;;3.63;1.60;;;;;;;;;;5053268;28;20206;-46
2022/09/19 03:41:51;;;;;;;3.80;1.50;;;;;;;;;;5053205;28;20196;-46
2022/09/19 03:44:19;;;;;;;4.03;1.40;;;;;;;;;;5053012;28;20204;-46
2022/09/19 03:46:46;;;;;;;3.97;1.70;;;;;;;;;;5053127;28;20201;-46
2022/09/19 03:49:13;;;;;;;1.87;1.40;;;;;;;;;;5052923;28;20224;-46
2022/09/19 03:51:40;;;;;;;2.90;1.70;;;;;;;;;;5052835;28;20666;-46
2022/09/19 03:54:06;;;;;;;4.30;1.73;;;;;;;;;;5052979;28;20204;-46
2022/09/19 03:56:32;;;;;;;2.80;1.47;;;;;;;;;;5052841;28;20200;-46
2022/09/19 03:58:58;;;;;;;6.80;1.70;;;;;;;;;;5052649;28;20530;-46
2022/09/19 04:01:24;;;;;;;4.87;1.60;;;;;;;;;;5052443;28;20210;-46
2022/09/19 04:03:51;;;;;;;4.43;1.43;;;;;;;;;;5051621;28;20259;-46
2022/09/19 04:06:18;;;;;;;4.80;1.87;;;;;;;;;;5052686;28;20258;-46
2022/09/19 04:08:44;;;;;;;4.67;1.67;;;;;;;;;;5052352;28;20231;-46
2022/09/19 04:11:12;;;;;;;3.87;1.60;;;;;;;;;;5052568;28;20246;-46
2022/09/19 04:13:38;;;;;;;2.83;1.40;;;;;;;;;;5052361;28;20262;-45
2022/09/19 04:16:05;;;;;;;5.17;1.47;;;;;;;;;;5052403;28;20255;-46
2022/09/19 04:18:33;;;;;;;3.00;1.50;;;;;;;;;;5049362;28;20650;-48
2022/09/19 04:21:00;;;;;;;4.50;1.77;;;;;;;;;;5052252;28;20227;-46
2022/09/19 04:23:27;;;;;;;6.83;1.80;;;;;;;;;;5051915;28;20288;-46
2022/09/19 04:25:54;;;;;;;5.23;1.57;;;;;;;;;;5051790;28;20250;-46
2022/09/19 04:28:21;;;;;;;6.53;1.93;;;;;;;;;;5051647;28;20706;-46
2022/09/19 04:30:47;;;;;;;3.83;1.60;;;;;;;;;;5051713;28;20259;-46
2022/09/19 04:33:14;;;;;;;2.80;1.70;;;;;;;;;;5051835;28;20196;-46
2022/09/19 04:35:43;;;;;;;4.47;1.80;;;;;;;;;;5051660;28;20234;-46
2022/09/19 04:38:11;;;;;;;3.87;1.97;;;;;;;;;;5052052;28;20287;-46
2022/09/19 04:40:39;;;;;;;6.33;2.30;;;;;;;;;;5051889;28;20207;-46
2022/09/19 04:43:05;;;;;;;5.20;2.63;;;;;;;;;;5051030;28;20208;-46
2022/09/19 04:45:31;;;;;;;8.77;2.77;;;;;;;;;;5051633;28;20294;-46
2022/09/19 04:47:59;;;;;;;5.17;2.37;;;;;;;;;;5051815;28;20286;-46
2022/09/19 04:50:24;;;;;;;7.30;3.17;;;;;;;;;;5051716;28;20200;-46
2022/09/19 04:52:51;;;;;;;8.83;3.67;;;;;;;;;;5051635;28;20200;-46
2022/09/19 04:55:17;;;;;;;9.30;5.47;;;;;;;;;;5051842;28;20291;-46
2022/09/19 04:57:44;;;;;;;6.10;4.40;;;;;;;;;;5051576;28;20275;-46
2022/09/19 05:00:11;;;;;;;7.47;5.60;;;;;;;;;;5051052;28;20196;-46
2022/09/19 05:02:38;;;;;;;11.80;5.57;;;;;;;;;;5051425;28;20247;-47
2022/09/19 05:05:05;;;;;;;8.53;4.90;;;;;;;;;;5051360;28;20717;-46
2022/09/19 05:07:34;;;;;;;12.00;6.53;;;;;;;;;;5050864;28;20220;-46
2022/09/19 05:10:01;;;;;;;7.20;5.63;;;;;;;;;;5051506;28;20220;-46
2022/09/19 05:12:28;;;;;;;10.67;7.10;;;;;;;;;;5051693;28;20207;-46
2022/09/19 05:14:56;;;;;;;11.53;7.50;;;;;;;;;;5051250;28;20654;-46
2022/09/19 05:17:23;;;;;;;10.70;7.63;;;;;;;;;;5051133;28;20667;-46
2022/09/19 05:19:49;;;;;;;13.83;8.23;;;;;;;;;;5051320;28;20196;-46
2022/09/19 05:22:15;;;;;;;13.17;8.17;;;;;;;;;;5051091;28;20681;-46
2022/09/19 05:24:41;;;;;;;15.47;8.70;;;;;;;;;;5049405;28;20192;-46
2022/09/19 05:27:07;;;;;;;14.47;8.37;;;;;;;;;;5051064;28;20207;-46
2022/09/19 05:29:39;;;;;;;13.53;8.17;;;;;;;;;;5050273;28;20224;-45
2022/09/19 05:32:06;;;;;;;12.90;8.23;;;;;;;;;;5051036;28;20204;-45
2022/09/19 05:34:32;;;;;;;12.33;7.90;;;;;;;;;;5050981;28;20618;-45
2022/09/19 05:36:58;;;;;;;16.73;8.60;;;;;;;;;;5050882;28;20256;-45
2022/09/19 05:39:24;;;;;;;18.70;8.80;;;;;;;;;;5051021;28;20247;-45
2022/09/19 05:41:50;;;;;;;13.17;8.80;;;;;;;;;;5050614;28;20199;-45
2022/09/19 05:44:16;;;;;;;12.47;9.23;;;;;;;;;;5050277;28;20250;-45
2022/09/19 05:46:43;;;;;;;22.33;10.33;;;;;;;;;;5050833;28;20204;-45
2022/09/19 05:49:10;;;;;;;13.10;8.97;;;;;;;;;;5051074;28;20699;-45
2022/09/19 05:51:36;;;;;;;15.47;9.83;;;;;;;;;;5050831;28;20223;-45
2022/09/19 05:54:02;;;;;;;18.27;10.50;;;;;;;;;;5053199;28;20665;-45
2022/09/19 05:56:29;;;;;;;19.70;9.97;;;;;;;;;;5053930;28;20192;-45
2022/09/19 05:58:56;;;;;;;16.10;9.97;;;;;;;;;;5054614;28;20188;-45
2022/09/19 06:01:22;;;;;;;16.00;10.00;;;;;;;;;;5054639;28;20203;-45
2022/09/19 06:03:48;;;;;;;18.43;10.27;;;;;;;;;;5054896;28;20200;-45
2022/09/19 06:06:18;;;;;;;18.10;10.47;;;;;;;;;;5054753;28;20196;-46
2022/09/19 06:08:45;;;;;;;17.77;10.60;;;;;;;;;;5054462;28;20259;-45
2022/09/19 06:11:11;;;;;;;19.30;9.30;;;;;;;;;;5054622;28;20196;-45
2022/09/19 06:16:22;;;;;;;14.87;9.27;;;;;;;;;;5054750;28;20246;-45
2022/09/19 06:18:49;;;;;;;12.80;8.50;;;;;;;;;;5054241;28;20654;-45
2022/09/19 06:21:16;;;;;;;17.30;9.30;;;;;;;;;;5054410;28;20291;-45
2022/09/19 06:23:42;;;;;;;18.17;8.53;;;;;;;;;;5054713;28;20603;-45
2022/09/19 06:26:09;;;;;;;16.83;8.70;;;;;;;;;;5054574;28;20258;-45
2022/09/19 06:28:35;;;;;;;14.87;8.37;;;;;;;;;;5054075;28;20224;-46
2022/09/19 06:31:04;;;;;;;17.30;8.70;;;;;;;;;;5054190;28;20239;-47
2022/09/19 06:33:30;;;;;;;12.70;7.67;;;;;;;;;;5054686;28;20188;-47
2022/09/19 06:35:58;;;;;;;13.03;8.10;;;;;;;;;;5054464;28;20204;-47
2022/09/19 06:38:25;;;;;;;12.90;8.43;;;;;;;;;;5052905;28;20220;-47
2022/09/19 06:40:51;;;;;;;12.70;7.40;;;;;;;;;;5053970;28;20238;-47
2022/09/19 06:43:18;;;;;;;15.33;7.50;;;;;;;;;;5054091;28;20215;-47
2022/09/19 06:45:44;;;;;;;13.30;7.80;;;;;;;;;;5054107;28;20524;-47
2022/09/19 06:48:10;;;;;;;11.77;6.90;;;;;;;;;;5053964;28;20551;-47
2022/09/19 06:50:36;;;;;;;12.20;6.80;;;;;;;;;;5054012;28;20201;-47
2022/09/19 06:53:03;;;;;;;13.47;7.30;;;;;;;;;;5054125;28;20200;-47
2022/09/19 06:55:30;;;;;;;12.13;6.17;;;;;;;;;;5053725;28;20275;-47
2022/09/19 06:57:58;;;;;;;10.53;6.10;;;;;;;;;;5053792;28;20203;-47
2022/09/19 07:00:24;;;;;;;11.17;5.70;;;;;;;;;;5054079;28;20192;-47
2022/09/19 07:02:52;;;;;;;11.63;5.90;;;;;;;;;;5053829;28;20185;-47
2022/09/19 07:05:19;;;;;;;8.60;4.40;;;;;;;;;;5052592;28;20208;-47
2022/09/19 07:07:45;;;;;;;11.40;4.20;;;;;;;;;;5053174;28;20230;-47
2022/09/19 07:10:11;;;;;;;8.13;3.97;;;;;;;;;;5049023;28;20283;-47
2022/09/19 07:12:38;;;;;;;10.77;4.30;;;;;;;;;;5049681;28;20259;-47
2022/09/19 07:15:05;;;;;;;9.40;3.57;;;;;;;;;;5048583;28;20573;-45
2022/09/19 07:17:31;;;;;;;8.47;3.33;;;;;;;;;;5052477;28;20651;-45
2022/09/19 07:19:57;;;;;;;10.67;3.47;;;;;;;;;;5053116;28;20202;-45
2022/09/19 07:22:23;;;;;;;11.07;3.50;;;;;;;;;;5053349;28;20542;-45
2022/09/19 07:24:49;;;;;;;11.00;3.57;;;;;;;;;;5053172;28;20202;-47
2022/09/19 07:27:15;;;;;;;10.30;3.50;;;;;;;;;;5053029;28;20223;-47
2022/09/19 07:29:43;;;;;;;9.10;3.60;;;;;;;;;;5054483;28;20226;-47
2022/09/19 07:32:09;;;;;;;10.00;3.70;;;;;;;;;;5073130;28;20712;-47
2022/09/19 07:34:35;;;;;;;8.70;3.30;;;;;;;;;;5073188;28;20202;-47
2022/09/19 07:37:01;;;;;;;7.17;3.20;;;;;;;;;;5073023;28;20231;-47
2022/09/19 07:39:27;;;;;;;13.80;3.40;;;;;;;;;;5072792;28;20218;-45
2022/09/19 07:41:53;;;;;;;9.60;4.23;;;;;;;;;;5072893;28;20567;-45
2022/09/19 07:44:19;;;;;;;5.80;3.00;;;;;;;;;;5072974;28;20261;-45
2022/09/19 07:47:26;;;;;;;6.53;3.27;;;;;;;;;;5072660;28;20199;-48
2022/09/19 07:49:32;;;;;;;9.40;4.00;;;;;;;;;;5072497;28;20231;-44
2022/09/19 07:51:59;;;;;;;9.37;3.97;;;;;;;;;;5072802;28;20195;-52
2022/09/19 07:54:24;;;;;;;7.73;3.97;;;;;;;;;;5071199;28;20257;-43
2022/09/19 07:56:50;;;;;;;10.13;4.30;;;;;;;;;;5063604;28;20679;-44
2022/09/19 07:59:17;;;;;;;10.00;4.43;;;;;;;;;;5032933;28;20193;-44
2022/09/19 08:01:43;;;;;;;11.63;4.30;;;;;;;;;;5032750;28;20709;-43
2022/09/19 08:04:10;;;;;;;9.40;3.93;;;;;;;;;;5032783;28;20259;-44
2022/09/19 08:06:36;;;;;;;7.47;3.63;;;;;;;;;;5032552;28;20255;-44
2022/09/19 08:09:03;;;;;;;14.07;3.87;;;;;;;;;;5032706;28;20290;-43
2022/09/19 08:11:29;;;;;;;9.90;3.93;;;;;;;;;;5031961;28;20200;-44
2022/09/19 08:13:55;;;;;;;10.00;3.17;;;;;;;;;;5032561;28;20222;-44
2022/09/19 08:16:21;;;;;;;8.27;3.03;;;;;;;;;;5032548;28;20686;-44
2022/09/19 08:18:47;;;;;;;9.53;3.53;;;;;;;;;;5042012;28;20282;-45
2022/09/19 08:21:15;;;;;;;12.70;3.53;;;;;;;;;;5052257;28;20568;-45
2022/09/19 08:23:41;;;;;;;10.07;3.07;;;;;;;;;;5052109;28;20627;-44
2022/09/19 08:26:07;;;;;;;6.83;2.60;;;;;;;;;;5052140;28;20196;-44
2022/09/19 08:28:34;;;;;;;13.63;3.13;;;;;;;;;;5051824;28;20612;-46
2022/09/19 08:31:00;;;;;;;7.87;3.00;;;;;;;;;;5066111;28;20247;-46
2022/09/19 08:33:26;;;;;;;9.90;3.13;;;;;;;;;;5071893;28;20211;-46
2022/09/19 08:35:52;;;;;;;8.37;3.10;;;;;;;;;;5071824;28;20235;-46
2022/09/19 08:38:20;;;;;;;9.10;3.43;;;;;;;;;;5071885;28;20211;-46
2022/09/19 08:41:04;;;;;;;9.60;3.03;;;;;;;;;;5069882;28;20217;-46
2022/09/19 08:43:35;;;;;;;10.30;2.77;;;;;;;;;;5068830;28;20215;-46
2022/09/19 08:46:07;;;;;;;10.43;2.90;;;;;;;;;;5071848;28;20286;-46
2022/09/19 08:48:38;;;;;;;11.70;3.37;;;;;;;;;;5071710;28;20288;-46
2022/09/19 08:51:06;;;;;;;10.70;3.00;;;;;;;;;;5071753;28;20581;-46
2022/09/19 08:53:38;;;;;;;10.93;3.30;;;;;;;;;;5071431;28;20211;-46
2022/09/19 08:56:04;;;;;;;9.07;2.70;;;;;;;;;;5071158;28;20615;-46
2022/09/19 08:58:34;;;;;;;11.47;2.40;;;;;;;;;;5070409;28;20276;-46
2022/09/19 09:01:01;;;;;;;8.60;2.60;;;;;;;;;;5071389;28;20201;-47
2022/09/19 09:03:42;;;;;;;10.93;2.40;;;;;;;;;;5071624;28;20655;-47
2022/09/19 09:06:18;;;;;;;7.50;2.37;;;;;;;;;;5069034;28;20302;-47
2022/09/19 09:08:51;;;;;;;13.07;2.90;;;;;;;;;;5071712;28;20256;-46
2022/09/19 09:11:22;;;;;;;6.07;2.63;;;;;;;;;;5071776;28;20205;-47
2022/09/19 09:13:54;;;;;;;8.00;2.40;;;;;;;;;;5071724;28;20689;-47
2022/09/19 09:16:24;;;;;;;9.77;3.00;;;;;;;;;;5071833;28;20211;-47
2022/09/19 09:18:59;;;;;;;9.77;2.77;;;;;;;;;;5071877;28;20202;-46
2022/09/19 09:21:29;;;;;;;7.37;2.50;;;;;;;;;;5071664;28;20723;-47
2022/09/19 09:23:58;;;;;;;16.47;3.53;;;;;;;;;;5071937;28;20585;-47
2022/09/19 09:26:26;;;;;;;9.87;2.90;;;;;;;;;;5072203;28;20236;-47
2022/09/19 09:28:55;;;;;;;12.07;3.07;;;;;;;;;;5071146;28;20254;-45
2022/09/19 09:31:26;;;;;;;10.53;2.83;;;;;;;;;;5071486;28;20700;-46
2022/09/19 09:33:54;;;;;;;10.97;2.73;;;;;;;;;;5071739;28;20207;-45
2022/09/19 09:36:23;;;;;;;8.50;2.40;;;;;;;;;;5071593;28;20213;-45
2022/09/19 09:38:52;;;;;;;8.50;2.67;;;;;;;;;;5071557;28;20203;-46
2022/09/19 09:44:16;;;;;;;9.53;2.67;;;;;;;;;;5069506;28;20317;-45
2022/09/19 09:46:48;;;;;;;9.40;2.67;;;;;;;;;;5069211;28;20286;-46
2022/09/19 09:49:14;;;;;;;8.63;2.77;;;;;;;;;;5070618;28;20681;-45
2022/09/19 09:51:49;;;;;;;7.63;2.37;;;;;;;;;;5070782;28;20268;-46
2022/09/19 09:57:11;;;;;;;10.10;2.87;;;;;;;;;;5070978;28;20263;-45
2022/09/19 10:05:16;;;;;;;9.77;2.97;;;;;;;;;;5070560;28;20201;-46
2022/09/19 10:07:45;;;;;;;6.60;2.37;;;;;;;;;;5070549;28;20319;-46
2022/09/19 10:10:13;;;;;;;9.20;2.37;;;;;;;;;;5069419;28;20241;-45
2022/09/19 10:12:43;;;;;;;11.47;2.60;;;;;;;;;;5070518;28;20213;-46
2022/09/19 10:15:14;;;;;;;8.10;2.77;;;;;;;;;;5070788;28;20256;-47
2022/09/19 10:17:43;;;;;;;7.77;2.67;;;;;;;;;;5069768;28;20196;-48
2022/09/19 10:20:15;;;;;;;9.43;2.80;;;;;;;;;;5070325;28;20210;-48
2022/09/19 10:22:41;;;;;;;6.20;2.70;;;;;;;;;;5070472;28;20279;-47
2022/09/19 10:25:09;;;;;;;7.13;2.33;;;;;;;;;;5070636;28;20275;-47
2022/09/19 10:27:41;;;;;;;10.70;2.77;;;;;;;;;;5070530;28;20206;-46
2022/09/19 10:30:15;;;;;;;8.40;2.60;;;;;;;;;;5070414;28;20250;-46
2022/09/19 10:32:43;;;;;;;7.60;2.67;;;;;;;;;;5070581;28;20204;-45
2022/09/19 10:35:26;;;;;;;8.30;2.50;;;;;;;;;;5070783;28;20196;-46
2022/09/19 10:37:52;;;;;;;6.37;2.73;;;;;;;;;;5070217;28;20199;-46
2022/09/19 10:40:19;;;;;;;10.70;3.13;;;;;;;;;;5070008;28;20672;-46
2022/09/19 10:42:47;;;;;;;5.57;2.10;;;;;;;;;;5072583;28;20682;-45
2022/09/19 10:45:25;;;;;;;8.97;2.67;;;;;;;;;;5074066;28;20282;-45
2022/09/19 10:47:54;;;;;;;5.93;2.13;;;;;;;;;;5073854;28;20726;-45
2022/09/19 10:50:21;;;;;;;7.10;2.70;;;;;;;;;;5073742;28;20223;-45
2022/09/19 10:52:48;;;;;;;7.10;2.20;;;;;;;;;;5073216;28;20200;-48
2022/09/19 10:55:15;;;;;;;5.60;2.03;;;;;;;;;;5073248;28;20199;-45
2022/09/19 10:57:44;;;;;;;5.63;2.33;;;;;;;;;;5073455;28;20653;-47
2022/09/19 11:00:25;;;;;;;5.97;2.33;;;;;;;;;;5074066;28;20216;-46
2022/09/19 11:02:55;;;;;;;5.37;2.10;;;;;;;;;;5070400;28;20208;-45
2022/09/19 11:05:23;;;;;;;5.60;2.50;;;;;;;;;;5073695;28;20692;-45
2022/09/19 11:07:54;;;;;;;6.47;2.10;;;;;;;;;;5073670;28;20563;-45
2022/09/19 11:10:37;;;;;;;7.27;2.53;;;;;;;;;;5073651;28;20227;-45
2022/09/19 11:13:07;;;;;;;5.80;2.47;;;;;;;;;;5073557;28;20199;-45
2022/09/19 11:15:34;;;;;;;7.37;2.73;;;;;;;;;;5072789;28;20273;-45
2022/09/19 11:18:07;;;;;;;7.17;2.27;;;;;;;;;;5073676;28;20199;-45
2022/09/19 11:20:40;;;;;;;8.50;2.90;;;;;;;;;;5073156;28;20735;-45
2022/09/19 11:23:14;;;;;;;6.63;2.17;;;;;;;;;;5073346;28;20604;-45
2022/09/19 11:25:44;;;;;;;5.83;2.73;;;;;;;;;;5073518;28;20210;-45
2022/09/19 11:28:15;;;;;;;7.80;2.40;;;;;;;;;;5073091;28;20300;-45
2022/09/19 11:30:45;;;;;;;10.90;2.60;;;;;;;;;;5071486;28;20284;-45
2022/09/19 11:33:38;;;;;;;7.40;1.97;;;;;;;;;;5072264;28;20248;-45
2022/09/19 11:36:07;;;;;;;7.73;2.50;;;;;;;;;;5072251;28;20592;-44
2022/09/19 11:38:37;;;;;;;9.13;2.30;;;;;;;;;;5072258;28;20684;-45
2022/09/19 11:41:09;;;;;;;4.63;2.10;;;;;;;;;;5073107;28;20650;-45
2022/09/19 11:43:44;;;;;;;8.93;2.77;;;;;;;;;;5072971;28;20204;-45
2022/09/19 11:46:15;;;;;;;8.33;2.10;;;;;;;;;;5073177;28;20200;-45
2022/09/19 11:48:54;;;;;;;8.43;2.53;;;;;;;;;;5072898;28;20573;-45
2022/09/19 11:51:26;;;;;;;9.20;2.63;;;;;;;;;;5072290;28;20589;-45
2022/09/19 11:54:03;;;;;;;6.27;1.90;;;;;;;;;;5072897;28;20205;-45
2022/09/19 11:56:37;;;;;;;4.10;2.23;;;;;;;;;;5072975;28;20233;-45
2022/09/19 11:59:07;;;;;;;5.07;1.70;;;;;;;;;;5072865;28;20188;-45
2022/09/19 12:01:40;;;;;;;4.10;1.63;;;;;;;;;;5072584;28;20199;-45
2022/09/19 12:04:17;;;;;;;3.30;1.60;;;;;;;;;;5072660;28;20199;-46
2022/09/19 12:06:50;;;;;;;4.10;1.60;;;;;;;;;;5072566;28;20203;-46
2022/09/19 12:09:17;;;;;;;4.47;1.83;;;;;;;;;;5072489;28;20273;-45
2022/09/19 12:11:48;;;;;;;5.07;1.80;;;;;;;;;;5072423;28;20195;-45
2022/09/19 12:14:19;;;;;;;4.10;1.80;;;;;;;;;;5072453;28;20196;-45
2022/09/19 12:16:47;;;;;;;3.23;1.70;;;;;;;;;;5072322;28;20199;-45
2022/09/19 12:19:16;;;;;;;4.60;1.47;;;;;;;;;;5072534;28;20192;-45
2022/09/19 12:21:45;;;;;;;1.67;1.23;;;;;;;;;;5072202;28;20212;-45
2022/09/19 12:27:01;;;;;;;3.40;1.20;;;;;;;;;;5072248;28;20221;-45
2022/09/19 12:29:32;;;;;;;3.00;1.23;;;;;;;;;;5071748;28;20234;-45
2022/09/19 12:32:00;;;;;;;2.83;1.10;;;;;;;;;;5071563;28;20203;-46
2022/09/19 12:34:32;;;;;;;3.73;1.30;;;;;;;;;;5071622;28;20187;-44
2022/09/19 12:37:00;;;;;;;2.97;1.20;;;;;;;;;;5071958;28;20757;-45
2022/09/19 12:39:33;;;;;;;3.33;1.40;;;;;;;;;;5071923;28;20564;-45
2022/09/19 12:42:02;;;;;;;1.50;1.10;;;;;;;;;;5071326;28;20225;-45
2022/09/19 12:44:34;;;;;;;3.97;1.33;;;;;;;;;;5071912;28;20203;-45
2022/09/19 12:47:04;;;;;;;3.27;1.70;;;;;;;;;;5072019;28;20223;-45
2022/09/19 12:49:37;;;;;;;3.53;1.20;;;;;;;;;;5071895;28;20212;-45
2022/09/19 12:52:08;;;;;;;4.83;1.60;;;;;;;;;;5071995;28;20265;-45
2022/09/19 12:54:37;;;;;;;3.93;1.70;;;;;;;;;;5071915;28;20387;-45
2022/09/19 12:57:05;;;;;;;4.13;1.53;;;;;;;;;;5071220;28;20294;-45
2022/09/19 12:59:33;;;;;;;5.87;2.10;;;;;;;;;;5071873;28;20197;-45
2022/09/19 13:02:01;;;;;;;4.00;1.70;;;;;;;;;;5071586;28;20201;-45
2022/09/19 13:04:31;;;;;;;6.17;1.90;;;;;;;;;;5070745;28;20201;-45
2022/09/19 13:07:03;;;;;;;5.93;2.10;;;;;;;;;;5072029;28;20229;-46
2022/09/19 13:09:35;;;;;;;6.30;1.97;;;;;;;;;;5071679;28;20336;-45
2022/09/19 13:12:04;;;;;;;6.63;2.10;;;;;;;;;;5071120;28;20205;-45
2022/09/19 13:14:35;;;;;;;8.13;2.23;;;;;;;;;;5071606;28;20250;-45
2022/09/19 13:25:29;;;;;;;5.43;2.10;;;;;;;;;;5071646;28;20203;-45
2022/09/19 13:28:10;;;;;;;5.10;1.93;;;;;;;;;;5071127;28;20202;-45
2022/09/19 13:30:49;;;;;;;6.90;2.10;;;;;;;;;;5070318;28;20251;-45
2022/09/19 13:33:28;;;;;;;6.43;1.73;;;;;;;;;;5071325;28;20199;-45
2022/09/19 13:35:59;;;;;;;6.93;2.00;;;;;;;;;;5071467;28;20818;-46
2022/09/19 13:38:37;;;;;;;5.07;2.23;;;;;;;;;;5070858;28;20273;-46
2022/09/19 13:41:05;;;;;;;4.57;1.90;;;;;;;;;;5071434;28;20207;-46
2022/09/19 13:43:38;;;;;;;4.57;1.93;;;;;;;;;;5071244;28;20230;-45
2022/09/19 13:46:10;;;;;;;5.80;2.03;;;;;;;;;;5071185;28;20650;-46
2022/09/19 13:48:39;;;;;;;5.53;1.93;;;;;;;;;;5053975;28;20235;-45
2022/09/19 13:51:07;;;;;;;4.00;2.00;;;;;;;;;;5051176;28;20270;-45
2022/09/19 13:53:38;;;;;;;6.07;2.20;;;;;;;;;;5050987;28;20215;-45
2022/09/19 13:56:24;;;;;;;6.63;2.17;;;;;;;;;;5050985;28;20608;-45
2022/09/19 13:58:52;;;;;;;6.13;2.40;;;;;;;;;;5050929;28;20199;-45
2022/09/19 14:01:23;;;;;;;4.70;1.90;;;;;;;;;;5066190;28;20676;-46
2022/09/19 14:03:52;;;;;;;7.37;2.23;;;;;;;;;;5070854;28;20254;-45
2022/09/19 14:06:26;;;;;;;6.40;2.20;;;;;;;;;;5070891;28;20574;-46
2022/09/19 14:09:10;;;;;;;6.20;1.90;;;;;;;;;;5067084;28;20225;-46
2022/09/19 14:11:38;;;;;;;4.30;2.00;;;;;;;;;;5070872;28;20178;-46
2022/09/19 14:14:19;;;;;;;5.40;1.97;;;;;;;;;;5071185;28;20204;-46
2022/09/19 14:17:07;;;;;;;4.83;2.07;;;;;;;;;;5073901;28;20205;-49
2022/09/19 14:19:43;;;;;;;4.77;2.13;;;;;;;;;;5074371;28;20260;-46
2022/09/19 14:22:28;;;;;;;5.10;1.93;;;;;;;;;;5073368;28;20191;-46
2022/09/19 14:25:02;;;;;;;7.03;2.20;;;;;;;;;;5073050;28;20198;-46
2022/09/19 14:27:41;;;;;;;3.43;1.83;;;;;;;;;;5074721;28;20564;-46
2022/09/19 14:30:15;;;;;;;7.83;2.20;;;;;;;;;;5074476;28;20243;-46
2022/09/19 14:32:42;;;;;;;8.17;2.30;;;;;;;;;;5074722;28;20210;-46
2022/09/19 14:35:18;;;;;;;4.03;1.90;;;;;;;;;;5074811;28;20282;-46
2022/09/19 14:37:54;;;;;;;7.93;2.13;;;;;;;;;;5074622;28;20439;-46
2022/09/19 14:40:33;;;;;;;4.97;2.30;;;;;;;;;;5074640;28;20275;-46
2022/09/19 14:43:17;;;;;;;5.37;2.20;;;;;;;;;;5074178;28;20630;-45
2022/09/19 14:45:56;;;;;;;6.83;1.90;;;;;;;;;;5074097;28;20642;-45
2022/09/19 14:48:28;;;;;;;4.23;2.00;;;;;;;;;;5074330;28;20265;-46
2022/09/19 14:50:57;;;;;;;6.60;1.97;;;;;;;;;;5074223;28;20227;-46
2022/09/19 14:53:25;;;;;;;5.67;2.07;;;;;;;;;;5074336;28;20200;-46
2022/09/19 14:55:52;;;;;;;5.00;2.17;;;;;;;;;;5074238;28;20203;-46
2022/09/19 14:58:22;;;;;;;5.60;1.70;;;;;;;;;;5074233;28;20284;-44
2022/09/19 15:00:55;;;;;;;6.90;1.93;;;;;;;;;;5074163;28;20274;-44
2022/09/19 15:03:21;;;;;;;6.03;1.73;;;;;;;;;;5074458;28;20207;-44
2022/09/19 15:05:49;;;;;;;4.80;1.43;;;;;;;;;;5074046;28;20657;-44
2022/09/19 15:08:17;;;;;;;2.97;1.63;;;;;;;;;;5074163;28;20219;-46
2022/09/19 15:10:46;;;;;;;4.03;1.60;;;;;;;;;;5073897;28;20562;-44
2022/09/19 15:13:22;;;;;;;3.70;1.63;;;;;;;;;;5074024;28;20497;-44
2022/09/19 15:15:49;;;;;;;5.63;1.77;;;;;;;;;;5074061;28;20199;-44
2022/09/19 15:18:23;;;;;;;9.03;1.90;;;;;;;;;;5073754;28;20278;-44
2022/09/19 15:20:53;;;;;;;5.37;2.00;;;;;;;;;;5073787;28;20195;-46